Time,TemperatureF,DewpointF,PressureIn,WindDirection,WindDirectionDegrees,WindSpeedMPH,WindSpeedGustMPH,Humidity,HourlyPrecipIn,Conditions,Clouds,dailyrainin,SoftwareType,DateUTC
2013-01-20 00:05:00,30.9,27.5,29.45,East,98,5.0,5.0,87,0.00,CLR,SCT,0.00,WeatherDisplay:10.37,2013-01-20 00:05:00,
2013-01-20 00:10:00,30.9,27.5,29.45,East,82,2.0,5.0,87,0.00,CLR,SCT,0.00,WeatherDisplay:10.37,2013-01-20 00:10:00,
2013-01-20 00:15:00,30.7,27.3,29.45,ENE,62,2.0,4.0,87,0.00,CLR,SCT,0.00,WeatherDisplay:10.37,2013-01-20 00:15:00,
2013-01-20 00:30:00,30.7,27.3,29.44,ENE,72,3.0,9.0,87,0.00,CLR,SCT,0.00,WeatherDisplay:10.37,2013-01-20 00:30:00,
2013-01-20 00:35:00,30.7,27.3,29.44,ENE,63,2.0,9.0,87,0.00,CLR,SCT,0.00,WeatherDisplay:10.37,2013-01-20 00:35:00,
2013-01-20 00:40:00,30.9,27.2,29.44,ENE,63,3.0,5.0,86,0.00,CLR,SCT,0.00,WeatherDisplay:10.37,2013-01-20 00:40:00,
2013-01-20 00:45:00,30.7,27.0,29.44,East,79,2.0,5.0,86,0.00,CLR,SCT,0.00,WeatherDisplay:10.37,2013-01-20 00:45:00,
2013-01-20 00:55:00,30.7,27.0,29.44,NE,41,3.0,4.0,86,0.00,CLR,SCT,0.00,WeatherDisplay:10.37,2013-01-20 00:55:00,
2013-01-20 01:00:00,30.7,27.0,29.44,East,99,7.0,10.0,86,0.00,CLR,SCT,0.00,WeatherDisplay:10.37,2013-01-20 01:00:00,
2013-01-20 01:05:00,30.7,27.0,29.44,WNW,284,0.0,10.0,86,0.00,CLR,SCT,0.00,WeatherDisplay:10.37,2013-01-20 01:05:00,
2013-01-20 01:15:00,30.7,27.0,29.44,NNE,19,2.0,8.0,86,0.00,CLR,SCT,0.00,WeatherDisplay:10.37,2013-01-20 01:15:00,
2013-01-20 01:25:00,30.7,27.0,29.43,SW,214,0.0,2.0,86,0.00,CLR,SCT,0.00,WeatherDisplay:10.37,2013-01-20 01:25:00,
2013-01-20 01:30:00,30.7,27.0,29.43,NE,45,3.0,4.0,86,0.00,CLR,SCT,0.00,WeatherDisplay:10.37,2013-01-20 01:30:00,
2013-01-20 01:40:00,30.7,27.0,29.43,North,357,0.0,3.0,86,0.00,CLR,SCT,0.00,WeatherDisplay:10.37,2013-01-20 01:40:00,
2013-01-20 01:45:00,30.7,27.0,29.43,East,91,2.0,3.0,86,0.00,CLR,SCT,0.00,WeatherDisplay:10.37,2013-01-20 01:45:00,
2013-01-20 02:00:00,30.6,26.9,29.43,ENE,71,2.0,6.0,86,0.00,CLR,SCT,0.00,WeatherDisplay:10.37,2013-01-20 02:00:00,
2013-01-20 02:10:00,30.6,27.2,29.43,ENE,73,3.0,4.0,87,0.00,CLR,SCT,0.00,WeatherDisplay:10.37,2013-01-20 02:10:00,
2013-01-20 02:15:00,30.6,27.2,29.42,SE,135,1.0,3.0,87,0.00,CLR,SCT,0.00,WeatherDisplay:10.37,2013-01-20 02:15:00,
2013-01-20 02:25:00,30.4,27.0,29.42,ESE,107,0.0,6.0,87,0.00,CLR,SCT,0.00,WeatherDisplay:10.37,2013-01-20 02:25:00,
2013-01-20 02:30:00,30.4,27.0,29.42,SSE,153,5.0,5.0,87,0.00,CLR,SCT,0.00,WeatherDisplay:10.37,2013-01-20 02:30:00,
2013-01-20 02:45:00,30.4,27.3,29.43,East,95,6.0,9.0,88,0.00,CLR,SCT,0.00,WeatherDisplay:10.37,2013-01-20 02:45:00,
2013-01-20 02:55:00,30.2,27.1,29.43,ENE,61,5.0,11.0,88,0.00,CLR,SCT,0.00,WeatherDisplay:10.37,2013-01-20 02:55:00,
2013-01-20 03:00:00,30.2,27.1,29.43,ENE,74,2.0,3.0,88,0.00,CLR,SCT,0.00,WeatherDisplay:10.37,2013-01-20 03:00:00,
2013-01-20 03:05:00,30.4,27.2,29.43,East,86,3.0,5.0,88,0.00,CLR,SCT,0.00,WeatherDisplay:10.37,2013-01-20 03:05:00,
2013-01-20 03:15:00,30.3,27.2,29.43,East,85,2.0,3.0,88,0.00,CLR,SCT,0.00,WeatherDisplay:10.37,2013-01-20 03:15:00,
2013-01-20 03:20:00,30.2,27.1,29.43,SE,127,5.0,6.0,88,0.00,CLR,SCT,0.00,WeatherDisplay:10.37,2013-01-20 03:20:00,
2013-01-20 03:30:00,30.2,27.1,29.43,East,91,5.0,6.0,88,0.00,CLR,SCT,0.00,WeatherDisplay:10.37,2013-01-20 03:30:00,
2013-01-20 03:35:00,30.2,27.1,29.43,ESE,104,2.0,3.0,88,0.00,CLR,SCT,0.00,WeatherDisplay:10.37,2013-01-20 03:35:00,
2013-01-20 03:50:00,30.2,26.8,29.43,ENE,64,2.0,8.0,87,0.00,CLR,SCT,0.00,WeatherDisplay:10.37,2013-01-20 03:50:00,
2013-01-20 04:00:00,30.2,26.8,29.42,SE,130,3.0,5.0,87,0.00,CLR,SCT,0.00,WeatherDisplay:10.37,2013-01-20 04:00:00,
2013-01-20 04:10:00,30.2,26.8,29.42,ENE,67,0.0,8.0,87,0.00,CLR,SCT,0.00,WeatherDisplay:10.37,2013-01-20 04:10:00,
2013-01-20 04:15:00,30.2,26.8,29.42,East,81,2.0,6.0,87,0.00,CLR,SCT,0.00,WeatherDisplay:10.37,2013-01-20 04:15:00,
2013-01-20 04:20:00,30.0,26.6,29.42,East,90,3.0,6.0,87,0.00,CLR,SCT,0.00,WeatherDisplay:10.37,2013-01-20 04:20:00,
2013-01-20 04:30:00,30.0,26.9,29.42,ENE,74,5.0,5.0,88,0.00,CLR,SCT,0.00,WeatherDisplay:10.37,2013-01-20 04:30:00,
2013-01-20 04:40:00,30.0,26.9,29.42,NE,53,1.0,3.0,88,0.00,CLR,SCT,0.00,WeatherDisplay:10.37,2013-01-20 04:40:00,
2013-01-20 04:45:00,30.0,26.9,29.42,North,355,3.0,4.0,88,0.00,CLR,SCT,0.00,WeatherDisplay:10.37,2013-01-20 04:45:00,
2013-01-20 04:55:00,29.9,26.7,29.42,ENE,65,1.0,6.0,88,0.00,CLR,SCT,0.00,WeatherDisplay:10.37,2013-01-20 04:55:00,
2013-01-20 05:05:00,29.8,26.7,29.41,ESE,111,5.0,5.0,88,0.00,CLR,SCT,0.00,WeatherDisplay:10.37,2013-01-20 05:05:00,
2013-01-20 05:10:00,29.8,27.0,29.41,ESE,110,0.0,5.0,89,0.00,CLR,SCT,0.00,WeatherDisplay:10.37,2013-01-20 05:10:00,
2013-01-20 05:20:00,29.8,27.0,29.41,East,94,5.0,6.0,89,0.00,CLR,SCT,0.00,WeatherDisplay:10.37,2013-01-20 05:20:00,
2013-01-20 05:25:00,29.8,27.0,29.41,NNE,31,2.0,6.0,89,0.00,CLR,SCT,0.00,WeatherDisplay:10.37,2013-01-20 05:25:00,
2013-01-20 05:30:00,29.8,27.0,29.41,North,9,2.0,4.0,89,0.00,CLR,SCT,0.00,WeatherDisplay:10.37,2013-01-20 05:30:00,
2013-01-20 05:35:00,29.8,27.0,29.41,ENE,78,7.0,8.0,89,0.00,CLR,SCT,0.00,WeatherDisplay:10.37,2013-01-20 05:35:00,
2013-01-20 05:45:00,29.8,27.0,29.41,ENE,72,1.0,3.0,89,0.00,CLR,SCT,0.00,WeatherDisplay:10.37,2013-01-20 05:45:00,
2013-01-20 05:55:00,29.8,27.0,29.41,ENE,69,0.0,5.0,89,0.00,CLR,SCT,0.00,WeatherDisplay:10.37,2013-01-20 05:55:00,
2013-01-20 06:00:00,29.8,27.0,29.41,ENE,78,2.0,3.0,89,0.00,CLR,SCT,0.00,WeatherDisplay:10.37,2013-01-20 06:00:00,
2013-01-20 06:10:00,29.8,27.0,29.41,ENE,73,0.0,2.0,89,0.00,CLR,SCT,0.00,WeatherDisplay:10.37,2013-01-20 06:10:00,
2013-01-20 06:15:00,29.8,27.0,29.41,ENE,64,1.0,3.0,89,0.00,CLR,SCT,0.00,WeatherDisplay:10.37,2013-01-20 06:15:00,
2013-01-20 06:25:00,29.8,27.0,29.41,ENE,69,2.0,5.0,89,0.00,CLR,SCT,0.00,WeatherDisplay:10.37,2013-01-20 06:25:00,
2013-01-20 06:30:00,29.7,26.8,29.41,East,98,0.0,2.0,89,0.00,CLR,SCT,0.00,WeatherDisplay:10.37,2013-01-20 06:30:00,
2013-01-20 06:35:00,29.8,27.3,29.41,East,89,1.0,2.0,90,0.00,CLR,SCT,0.00,WeatherDisplay:10.37,2013-01-20 06:35:00,
2013-01-20 06:40:00,29.8,27.3,29.41,NE,41,6.0,6.0,90,0.00,CLR,SCT,0.00,WeatherDisplay:10.37,2013-01-20 06:40:00,
2013-01-20 06:45:00,29.8,27.0,29.41,ENE,71,9.0,11.0,89,0.00,CLR,SCT,0.00,WeatherDisplay:10.37,2013-01-20 06:45:00,
2013-01-20 06:55:00,29.8,27.3,29.41,NE,44,0.0,2.0,90,0.00,CLR,SCT,0.00,WeatherDisplay:10.37,2013-01-20 06:55:00,
2013-01-20 07:05:00,29.8,27.3,29.40,East,96,1.0,3.0,90,0.00,CLR,SCT,0.00,WeatherDisplay:10.37,2013-01-20 07:05:00,
2013-01-20 07:10:00,29.8,27.3,29.40,East,94,2.0,3.0,90,0.00,CLR,SCT,0.00,WeatherDisplay:10.37,2013-01-20 07:10:00,
2013-01-20 07:15:00,29.8,27.3,29.40,East,92,0.0,2.0,90,0.00,CLR,SCT,0.00,WeatherDisplay:10.37,2013-01-20 07:15:00,
2013-01-20 07:20:00,29.8,27.3,29.40,NNE,18,1.0,2.0,90,0.00,CLR,SCT,0.00,WeatherDisplay:10.37,2013-01-20 07:20:00,
2013-01-20 07:25:00,29.8,27.3,29.41,ENE,71,0.0,3.0,90,0.00,CLR,SCT,0.00,WeatherDisplay:10.37,2013-01-20 07:25:00,
2013-01-20 07:30:00,29.8,27.3,29.41,East,93,0.0,2.0,90,0.00,CLR,SCT,0.00,WeatherDisplay:10.37,2013-01-20 07:30:00,
2013-01-20 07:40:00,29.8,27.3,29.41,ESE,108,2.0,3.0,90,0.00,CLR,SCT,0.00,WeatherDisplay:10.37,2013-01-20 07:40:00,
2013-01-20 07:45:00,29.8,27.3,29.41,ESE,116,3.0,8.0,90,0.00,CLR,SCT,0.00,WeatherDisplay:10.37,2013-01-20 07:45:00,
2013-01-20 07:50:00,29.8,27.3,29.41,East,90,2.0,8.0,90,0.00,CLR,SCT,0.00,WeatherDisplay:10.37,2013-01-20 07:50:00,
2013-01-20 08:00:00,29.7,27.1,29.41,ENE,68,3.0,9.0,90,0.00,CLR,SCT,0.00,WeatherDisplay:10.37,2013-01-20 08:00:00,
2013-01-20 08:05:00,29.7,27.1,29.41,ENE,62,3.0,4.0,90,0.00,CLR,SCT,0.00,WeatherDisplay:10.37,2013-01-20 08:05:00,
2013-01-20 08:10:00,29.7,27.1,29.42,NE,50,1.0,3.0,90,0.00,CLR,SCT,0.00,WeatherDisplay:10.37,2013-01-20 08:10:00,
2013-01-20 08:15:00,29.7,27.1,29.41,NE,41,2.0,3.0,90,0.00,CLR,SCT,0.00,WeatherDisplay:10.37,2013-01-20 08:15:00,
2013-01-20 08:20:00,29.5,26.9,29.41,East,89,1.0,3.0,90,0.00,CLR,SCT,0.00,WeatherDisplay:10.37,2013-01-20 08:20:00,
2013-01-20 08:25:00,29.5,26.9,29.41,East,88,2.0,2.0,90,0.00,CLR,SCT,0.00,WeatherDisplay:10.37,2013-01-20 08:25:00,
2013-01-20 08:30:00,29.6,27.0,29.41,ENE,72,2.0,3.0,90,0.00,CLR,SCT,0.00,WeatherDisplay:10.37,2013-01-20 08:30:00,
2013-01-20 08:35:00,29.7,27.1,29.40,East,96,2.0,3.0,90,0.00,CLR,SCT,0.00,WeatherDisplay:10.37,2013-01-20 08:35:00,
2013-01-20 08:40:00,29.7,27.1,29.40,East,84,5.0,5.0,90,0.00,CLR,SCT,0.00,WeatherDisplay:10.37,2013-01-20 08:40:00,
2013-01-20 08:45:00,29.6,27.1,29.40,East,86,1.0,5.0,90,0.00,CLR,SCT,0.00,WeatherDisplay:10.37,2013-01-20 08:45:00,
2013-01-20 08:55:00,29.7,27.1,29.39,NE,53,3.0,4.0,90,0.00,CLR,SCT,0.00,WeatherDisplay:10.37,2013-01-20 08:55:00,
2013-01-20 09:00:00,29.7,27.1,29.40,ENE,60,3.0,8.0,90,0.00,CLR,SCT,0.00,WeatherDisplay:10.37,2013-01-20 09:00:00,
2013-01-20 09:05:00,29.7,27.1,29.40,NE,51,3.0,8.0,90,0.00,CLR,SCT,0.00,WeatherDisplay:10.37,2013-01-20 09:05:00,
2013-01-20 09:10:00,29.8,27.3,29.40,NE,44,1.0,2.0,90,0.00,CLR,SCT,0.00,WeatherDisplay:10.37,2013-01-20 09:10:00,
2013-01-20 09:15:00,29.8,27.3,29.40,ESE,105,0.0,2.0,90,0.00,CLR,SCT,0.00,WeatherDisplay:10.37,2013-01-20 09:15:00,
2013-01-20 09:20:00,29.8,27.5,29.39,East,96,0.0,1.0,91,0.00,CLR,SCT,0.00,WeatherDisplay:10.37,2013-01-20 09:20:00,
2013-01-20 09:25:00,29.8,27.5,29.40,ENE,62,0.0,2.0,91,0.00,CLR,SCT,0.00,WeatherDisplay:10.37,2013-01-20 09:25:00,
2013-01-20 09:30:00,30.0,27.7,29.39,ENE,62,2.0,4.0,91,0.00,CLR,SCT,0.00,WeatherDisplay:10.37,2013-01-20 09:30:00,
2013-01-20 09:35:00,30.0,27.7,29.39,ENE,73,1.0,4.0,91,0.00,CLR,SCT,0.00,WeatherDisplay:10.37,2013-01-20 09:35:00,
2013-01-20 09:40:00,30.0,27.7,29.39,ENE,70,1.0,4.0,91,0.00,CLR,SCT,0.00,WeatherDisplay:10.37,2013-01-20 09:40:00,
2013-01-20 09:45:00,30.3,28.0,29.39,NE,49,5.0,5.0,91,0.00,CLR,SCT,0.00,WeatherDisplay:10.37,2013-01-20 09:45:00,
2013-01-20 09:55:00,30.4,28.1,29.39,East,81,0.0,2.0,91,0.00,CLR,SCT,0.00,WeatherDisplay:10.37,2013-01-20 09:55:00,
2013-01-20 10:00:00,30.6,28.2,29.39,East,84,1.0,1.0,91,0.00,CLR,SCT,0.00,WeatherDisplay:10.37,2013-01-20 10:00:00,
2013-01-20 10:10:00,30.6,28.2,29.38,ENE,63,0.0,2.0,91,0.00,CLR,SCT,0.00,WeatherDisplay:10.37,2013-01-20 10:10:00,
2013-01-20 10:15:00,30.7,28.4,29.39,NE,42,2.0,3.0,91,0.00,CLR,SCT,0.00,WeatherDisplay:10.37,2013-01-20 10:15:00,
2013-01-20 10:20:00,30.7,28.4,29.39,NE,47,0.0,2.0,91,0.00,CLR,SCT,0.00,WeatherDisplay:10.37,2013-01-20 10:20:00,
2013-01-20 10:30:00,31.0,28.7,29.38,East,90,5.0,6.0,91,0.00,CLR,SCT,0.00,WeatherDisplay:10.37,2013-01-20 10:30:00,
2013-01-20 10:35:00,31.3,29.0,29.38,ENE,71,1.0,2.0,91,0.00,CLR,SCT,0.00,WeatherDisplay:10.37,2013-01-20 10:35:00,
2013-01-20 10:40:00,31.3,29.0,29.38,NE,56,0.0,4.0,91,0.00,CLR,SCT,0.00,WeatherDisplay:10.37,2013-01-20 10:40:00,
2013-01-20 10:45:00,31.4,29.1,29.38,ENE,64,2.0,3.0,91,0.00,CLR,SCT,0.00,WeatherDisplay:10.37,2013-01-20 10:45:00,
2013-01-20 10:50:00,31.6,29.3,29.38,ENE,68,1.0,3.0,91,0.00,CLR,SCT,0.00,WeatherDisplay:10.37,2013-01-20 10:50:00,
2013-01-20 11:00:00,31.8,29.2,29.37,ENE,60,2.0,3.0,90,0.00,CLR,SCT,0.00,WeatherDisplay:10.37,2013-01-20 11:00:00,
2013-01-20 11:05:00,31.8,29.2,29.37,ENE,71,1.0,3.0,90,0.00,CLR,SCT,0.00,WeatherDisplay:10.37,2013-01-20 11:05:00,
2013-01-20 11:10:00,31.8,29.2,29.37,ENE,68,3.0,3.0,90,0.00,CLR,SCT,0.00,WeatherDisplay:10.37,2013-01-20 11:10:00,
2013-01-20 11:20:00,31.8,29.2,29.37,NE,41,3.0,3.0,90,0.00,CLR,SCT,0.00,WeatherDisplay:10.37,2013-01-20 11:20:00,
2013-01-20 11:30:00,32.2,29.6,29.36,North,358,3.0,5.0,90,0.00,CLR,SCT,0.00,WeatherDisplay:10.37,2013-01-20 11:30:00,
2013-01-20 11:35:00,32.4,29.8,29.36,WNW,296,1.0,1.0,90,0.00,CLR,SCT,0.00,WeatherDisplay:10.37,2013-01-20 11:35:00,
2013-01-20 11:40:00,32.4,29.8,29.36,North,3,1.0,1.0,90,0.00,CLR,SCT,0.00,WeatherDisplay:10.37,2013-01-20 11:40:00,
2013-01-20 11:45:00,32.4,29.8,29.36,NE,52,2.0,3.0,90,0.00,CLR,SCT,0.00,WeatherDisplay:10.37,2013-01-20 11:45:00,
2013-01-20 11:55:00,32.4,29.8,29.35,NE,46,8.0,9.0,90,0.00,CLR,SCT,0.00,WeatherDisplay:10.37,2013-01-20 11:55:00,
2013-01-20 12:05:00,32.2,29.6,29.35,ENE,58,2.0,2.0,90,0.00,CLR,SCT,0.00,WeatherDisplay:10.37,2013-01-20 12:05:00,
2013-01-20 12:10:00,32.4,29.8,29.35,East,97,1.0,4.0,90,0.00,CLR,SCT,0.00,WeatherDisplay:10.37,2013-01-20 12:10:00,
2013-01-20 12:15:00,32.5,29.9,29.35,ESE,111,0.0,4.0,90,0.00,CLR,SCT,0.00,WeatherDisplay:10.37,2013-01-20 12:15:00,
2013-01-20 12:20:00,32.5,29.9,29.34,ESE,122,0.0,0.0,90,0.00,CLR,SCT,0.00,WeatherDisplay:10.37,2013-01-20 12:20:00,
2013-01-20 12:30:00,32.5,29.9,29.34,ENE,66,2.0,3.0,90,0.00,CLR,SCT,0.00,WeatherDisplay:10.37,2013-01-20 12:30:00,
2013-01-20 12:35:00,32.7,30.1,29.34,East,83,1.0,2.0,90,0.00,CLR,SCT,0.00,WeatherDisplay:10.37,2013-01-20 12:35:00,
2013-01-20 12:40:00,32.7,30.1,29.34,ENE,70,0.0,2.0,90,0.00,CLR,SCT,0.00,WeatherDisplay:10.37,2013-01-20 12:40:00,
2013-01-20 12:45:00,32.9,30.3,29.34,East,80,0.0,0.0,90,0.00,CLR,SCT,0.00,WeatherDisplay:10.37,2013-01-20 12:45:00,
2013-01-20 12:55:00,33.1,30.5,29.34,NE,43,0.0,2.0,90,0.00,CLR,SCT,0.00,WeatherDisplay:10.37,2013-01-20 12:55:00,
2013-01-20 13:00:00,33.3,30.6,29.34,NNE,21,0.0,1.0,90,0.00,CLR,SCT,0.00,WeatherDisplay:10.37,2013-01-20 13:00:00,
2013-01-20 13:05:00,33.4,30.8,29.33,ENE,64,1.0,2.0,90,0.00,CLR,SCT,0.00,WeatherDisplay:10.37,2013-01-20 13:05:00,
2013-01-20 13:10:00,33.4,30.8,29.34,NE,50,0.0,1.0,90,0.00,CLR,SCT,0.00,WeatherDisplay:10.37,2013-01-20 13:10:00,
2013-01-20 13:20:00,33.6,31.0,29.33,ENE,61,0.0,1.0,90,0.00,CLR,SCT,0.00,WeatherDisplay:10.37,2013-01-20 13:20:00,
2013-01-20 13:25:00,33.6,31.0,29.33,ENE,60,0.0,3.0,90,0.00,CLR,SCT,0.00,WeatherDisplay:10.37,2013-01-20 13:25:00,
2013-01-20 13:35:00,33.4,30.5,29.33,ESE,107,0.0,2.0,89,0.00,CLR,SCT,0.00,WeatherDisplay:10.37,2013-01-20 13:35:00,
2013-01-20 13:40:00,33.4,30.5,29.33,ENE,74,1.0,2.0,89,0.00,CLR,SCT,0.00,WeatherDisplay:10.37,2013-01-20 13:40:00,
2013-01-20 13:45:00,33.4,30.8,29.33,East,88,1.0,2.0,90,0.00,CLR,SCT,0.00,WeatherDisplay:10.37,2013-01-20 13:45:00,
2013-01-20 13:50:00,33.6,31.0,29.33,East,94,1.0,2.0,90,0.00,CLR,SCT,0.00,WeatherDisplay:10.37,2013-01-20 13:50:00,
2013-01-20 14:00:00,33.4,30.8,29.33,NE,41,0.0,0.0,90,0.00,CLR,SCT,0.00,WeatherDisplay:10.37,2013-01-20 14:00:00,
2013-01-20 14:10:00,33.4,30.8,29.33,East,87,0.0,0.0,90,0.00,CLR,SCT,0.00,WeatherDisplay:10.37,2013-01-20 14:10:00,
2013-01-20 14:15:00,33.3,30.6,29.33,ENE,77,0.0,0.0,90,0.00,CLR,SCT,0.00,WeatherDisplay:10.37,2013-01-20 14:15:00,
2013-01-20 14:20:00,33.3,30.6,29.33,ENE,63,0.0,0.0,90,0.00,CLR,SCT,0.00,WeatherDisplay:10.37,2013-01-20 14:20:00,
2013-01-20 14:25:00,33.3,30.6,29.33,ENE,68,0.0,1.0,90,0.00,CLR,SCT,0.00,WeatherDisplay:10.37,2013-01-20 14:25:00,
2013-01-20 14:30:00,33.3,30.6,29.33,ENE,67,0.0,1.0,90,0.00,CLR,SCT,0.00,WeatherDisplay:10.37,2013-01-20 14:30:00,
2013-01-20 14:40:00,33.1,30.5,29.32,ENE,71,0.0,1.0,90,0.00,CLR,SCT,0.00,WeatherDisplay:10.37,2013-01-20 14:40:00,
2013-01-20 14:45:00,32.9,30.3,29.32,ENE,72,0.0,1.0,90,0.00,CLR,SCT,0.00,WeatherDisplay:10.37,2013-01-20 14:45:00,
2013-01-20 14:50:00,32.9,30.3,29.32,NNE,30,0.0,0.0,90,0.00,CLR,SCT,0.00,WeatherDisplay:10.37,2013-01-20 14:50:00,
2013-01-20 15:00:00,32.9,30.6,29.33,East,101,0.0,1.0,91,0.00,CLR,SCT,0.00,WeatherDisplay:10.37,2013-01-20 15:00:00,
2013-01-20 15:05:00,32.7,30.4,29.33,East,90,0.0,0.0,91,0.00,CLR,SCT,0.00,WeatherDisplay:10.37,2013-01-20 15:05:00,
2013-01-20 15:10:00,32.7,30.4,29.32,East,90,0.0,0.0,91,0.00,CLR,SCT,0.00,WeatherDisplay:10.37,2013-01-20 15:10:00,
2013-01-20 15:15:00,32.7,30.4,29.32,East,90,0.0,0.0,91,0.00,CLR,SCT,0.00,WeatherDisplay:10.37,2013-01-20 15:15:00,
2013-01-20 15:25:00,32.7,30.3,29.32,East,90,0.0,2.0,91,0.00,CLR,SCT,0.00,WeatherDisplay:10.37,2013-01-20 15:25:00,
2013-01-20 15:30:00,32.6,30.3,29.32,East,90,0.0,0.0,91,0.00,CLR,SCT,0.00,WeatherDisplay:10.37,2013-01-20 15:30:00,
2013-01-20 15:35:00,32.7,30.4,29.32,East,90,0.0,0.0,91,0.00,CLR,SCT,0.00,WeatherDisplay:10.37,2013-01-20 15:35:00,
2013-01-20 15:40:00,32.7,30.4,29.32,East,90,0.0,0.0,91,0.00,CLR,SCT,0.00,WeatherDisplay:10.37,2013-01-20 15:40:00,
2013-01-20 15:45:00,32.7,30.4,29.32,East,90,0.0,0.0,91,0.00,CLR,SCT,0.00,WeatherDisplay:10.37,2013-01-20 15:45:00,
2013-01-20 15:50:00,32.5,30.2,29.32,East,90,0.0,0.0,91,0.00,CLR,SCT,0.00,WeatherDisplay:10.37,2013-01-20 15:50:00,
2013-01-20 16:00:00,32.4,30.1,29.32,East,90,0.0,0.0,91,0.00,CLR,SCT,0.00,WeatherDisplay:10.37,2013-01-20 16:00:00,
2013-01-20 16:05:00,32.5,30.2,29.32,East,90,0.0,0.0,91,0.00,CLR,SCT,0.00,WeatherDisplay:10.37,2013-01-20 16:05:00,
2013-01-20 16:10:00,32.3,30.0,29.32,East,90,0.0,0.0,91,0.00,CLR,SCT,0.00,WeatherDisplay:10.37,2013-01-20 16:10:00,
2013-01-20 16:15:00,32.3,30.0,29.32,East,90,0.0,0.0,91,0.00,CLR,SCT,0.00,WeatherDisplay:10.37,2013-01-20 16:15:00,
2013-01-20 16:25:00,32.2,30.1,29.31,East,90,0.0,0.0,92,0.00,CLR,SCT,0.00,WeatherDisplay:10.37,2013-01-20 16:25:00,
2013-01-20 16:30:00,32.2,30.1,29.31,East,90,0.0,0.0,92,0.00,CLR,SCT,0.00,WeatherDisplay:10.37,2013-01-20 16:30:00,
2013-01-20 16:35:00,32.2,30.1,29.32,East,90,0.0,0.0,92,0.00,CLR,SCT,0.00,WeatherDisplay:10.37,2013-01-20 16:35:00,
2013-01-20 16:40:00,32.2,30.1,29.32,East,90,0.0,0.0,92,0.00,CLR,SCT,0.00,WeatherDisplay:10.37,2013-01-20 16:40:00,
2013-01-20 16:45:00,32.0,29.9,29.31,East,90,0.0,0.0,92,0.00,CLR,SCT,0.00,WeatherDisplay:10.37,2013-01-20 16:45:00,
2013-01-20 16:55:00,31.8,29.8,29.31,East,90,0.0,0.0,92,0.00,CLR,SCT,0.00,WeatherDisplay:10.37,2013-01-20 16:55:00,
2013-01-20 17:05:00,31.6,29.6,29.31,East,90,0.0,0.0,92,0.00,CLR,SCT,0.00,WeatherDisplay:10.37,2013-01-20 17:05:00,
2013-01-20 17:10:00,31.6,29.6,29.31,East,90,0.0,0.0,92,0.00,CLR,SCT,0.00,WeatherDisplay:10.37,2013-01-20 17:10:00,
2013-01-20 17:20:00,31.6,29.6,29.31,East,90,0.0,0.0,92,0.00,CLR,SCT,0.00,WeatherDisplay:10.37,2013-01-20 17:20:00,
2013-01-20 17:25:00,31.6,29.6,29.31,East,90,0.0,0.0,92,0.00,CLR,SCT,0.00,WeatherDisplay:10.37,2013-01-20 17:25:00,
2013-01-20 17:30:00,31.5,29.5,29.30,East,90,0.0,0.0,92,0.00,CLR,SCT,0.00,WeatherDisplay:10.37,2013-01-20 17:30:00,
2013-01-20 17:40:00,31.3,29.2,29.30,East,90,0.0,0.0,92,0.00,CLR,SCT,0.00,WeatherDisplay:10.37,2013-01-20 17:40:00,
2013-01-20 17:45:00,31.3,29.2,29.30,East,90,0.0,0.0,92,0.00,CLR,SCT,0.00,WeatherDisplay:10.37,2013-01-20 17:45:00,
2013-01-20 17:50:00,31.3,29.2,29.30,East,90,0.0,0.0,92,0.00,CLR,SCT,0.00,WeatherDisplay:10.37,2013-01-20 17:50:00,
2013-01-20 18:00:00,31.3,29.2,29.30,East,90,0.0,0.0,92,0.00,CLR,SCT,0.00,WeatherDisplay:10.37,2013-01-20 18:00:00,
2013-01-20 18:10:00,31.3,29.5,29.29,East,90,0.0,0.0,93,0.00,CLR,SCT,0.00,WeatherDisplay:10.37,2013-01-20 18:10:00,
2013-01-20 18:15:00,31.3,29.5,29.29,East,90,0.0,0.0,93,0.00,CLR,SCT,0.00,WeatherDisplay:10.37,2013-01-20 18:15:00,
2013-01-20 18:25:00,31.3,29.5,29.29,East,90,0.0,0.0,93,0.00,CLR,SCT,0.00,WeatherDisplay:10.37,2013-01-20 18:25:00,
2013-01-20 18:30:00,31.3,29.5,29.29,East,90,0.0,0.0,93,0.00,CLR,SCT,0.00,WeatherDisplay:10.37,2013-01-20 18:30:00,
2013-01-20 18:40:00,31.3,29.5,29.29,East,90,0.0,0.0,93,0.00,CLR,SCT,0.00,WeatherDisplay:10.37,2013-01-20 18:40:00,
2013-01-20 18:45:00,31.3,29.5,29.29,East,90,0.0,0.0,93,0.00,CLR,SCT,0.00,WeatherDisplay:10.37,2013-01-20 18:45:00,
2013-01-20 18:55:00,31.3,29.5,29.29,East,90,0.0,0.0,93,0.00,CLR,SCT,0.00,WeatherDisplay:10.37,2013-01-20 18:55:00,
2013-01-20 19:00:00,31.3,29.5,29.29,East,90,0.0,0.0,93,0.00,CLR,SCT,0.00,WeatherDisplay:10.37,2013-01-20 19:00:00,
2013-01-20 19:05:00,31.3,29.5,29.29,East,90,0.0,0.0,93,0.00,CLR,SCT,0.00,WeatherDisplay:10.37,2013-01-20 19:05:00,
2013-01-20 19:10:00,31.3,29.5,29.29,East,90,0.0,0.0,93,0.00,CLR,SCT,0.00,WeatherDisplay:10.37,2013-01-20 19:10:00,
2013-01-20 19:15:00,31.3,29.5,29.29,East,90,0.0,0.0,93,0.00,CLR,SCT,0.00,WeatherDisplay:10.37,2013-01-20 19:15:00,
2013-01-20 19:20:00,31.3,29.5,29.29,East,90,0.0,0.0,93,0.00,CLR,SCT,0.00,WeatherDisplay:10.37,2013-01-20 19:20:00,
2013-01-20 19:25:00,31.3,29.5,29.29,East,90,0.0,0.0,93,0.00,CLR,SCT,0.00,WeatherDisplay:10.37,2013-01-20 19:25:00,
2013-01-20 19:30:00,31.3,29.5,29.29,East,90,0.0,0.0,93,0.00,CLR,SCT,0.00,WeatherDisplay:10.37,2013-01-20 19:30:00,
2013-01-20 19:35:00,31.3,29.5,29.29,East,90,0.0,0.0,93,0.00,CLR,SCT,0.00,WeatherDisplay:10.37,2013-01-20 19:35:00,
2013-01-20 19:40:00,31.3,29.5,29.30,East,90,0.0,0.0,93,0.00,CLR,SCT,0.00,WeatherDisplay:10.37,2013-01-20 19:40:00,
2013-01-20 19:45:00,31.3,29.5,29.29,East,90,0.0,0.0,93,0.00,CLR,SCT,0.00,WeatherDisplay:10.37,2013-01-20 19:45:00,
2013-01-20 19:50:00,31.3,29.5,29.29,East,90,0.0,0.0,93,0.00,CLR,SCT,0.00,WeatherDisplay:10.37,2013-01-20 19:50:00,
2013-01-20 20:00:00,31.3,29.5,29.29,East,90,0.0,0.0,93,0.00,CLR,SCT,0.00,WeatherDisplay:10.37,2013-01-20 20:00:00,
2013-01-20 20:10:00,31.1,29.3,29.29,East,90,0.0,0.0,93,0.00,CLR,SCT,0.00,WeatherDisplay:10.37,2013-01-20 20:10:00,
2013-01-20 20:20:00,31.1,29.3,29.28,East,90,0.0,0.0,93,0.00,CLR,SCT,0.00,WeatherDisplay:10.37,2013-01-20 20:20:00,
2013-01-20 20:25:00,31.1,29.3,29.29,East,90,0.0,0.0,93,0.00,CLR,SCT,0.00,WeatherDisplay:10.37,2013-01-20 20:25:00,
2013-01-20 20:35:00,31.1,29.3,29.29,East,90,0.0,0.0,93,0.00,CLR,SCT,0.00,WeatherDisplay:10.37,2013-01-20 20:35:00,
2013-01-20 20:40:00,31.1,29.3,29.28,East,90,0.0,0.0,93,0.00,CLR,SCT,0.00,WeatherDisplay:10.37,2013-01-20 20:40:00,
2013-01-20 20:45:00,31.1,29.3,29.29,East,90,0.0,0.0,93,0.00,CLR,SCT,0.00,WeatherDisplay:10.37,2013-01-20 20:45:00,
2013-01-20 20:50:00,31.1,29.3,29.28,East,90,0.0,0.0,93,0.00,CLR,SCT,0.00,WeatherDisplay:10.37,2013-01-20 20:50:00,
2013-01-20 21:00:00,31.1,29.3,29.28,East,90,0.0,0.0,93,0.00,CLR,SCT,0.00,WeatherDisplay:10.37,2013-01-20 21:00:00,
2013-01-20 21:05:00,31.1,29.3,29.28,East,90,0.0,0.0,93,0.00,CLR,SCT,0.00,WeatherDisplay:10.37,2013-01-20 21:05:00,
2013-01-20 21:15:00,31.1,29.3,29.28,East,90,0.0,0.0,93,0.00,CLR,SCT,0.00,WeatherDisplay:10.37,2013-01-20 21:15:00,
2013-01-20 21:20:00,30.9,29.1,29.28,East,90,0.0,0.0,93,0.00,CLR,SCT,0.00,WeatherDisplay:10.37,2013-01-20 21:20:00,
2013-01-20 21:25:00,31.1,29.3,29.28,East,90,0.0,0.0,93,0.00,CLR,SCT,0.00,WeatherDisplay:10.37,2013-01-20 21:25:00,
2013-01-20 21:30:00,30.9,29.1,29.28,East,90,0.0,0.0,93,0.00,CLR,SCT,0.00,WeatherDisplay:10.37,2013-01-20 21:30:00,
2013-01-20 21:35:00,30.9,29.1,29.28,East,90,0.0,0.0,93,0.00,CLR,SCT,0.00,WeatherDisplay:10.37,2013-01-20 21:35:00,
2013-01-20 21:40:00,30.9,29.1,29.28,East,90,0.0,0.0,93,0.00,CLR,SCT,0.00,WeatherDisplay:10.37,2013-01-20 21:40:00,
2013-01-20 21:45:00,30.9,29.1,29.28,East,90,0.0,0.0,93,0.00,CLR,SCT,0.00,WeatherDisplay:10.37,2013-01-20 21:45:00,
2013-01-20 21:50:00,30.9,29.1,29.28,East,90,0.0,0.0,93,0.00,CLR,SCT,0.00,WeatherDisplay:10.37,2013-01-20 21:50:00,
2013-01-20 22:00:00,30.9,29.1,29.28,East,90,0.0,0.0,93,0.00,CLR,SCT,0.00,WeatherDisplay:10.37,2013-01-20 22:00:00,
2013-01-20 22:05:00,30.9,29.1,29.28,East,90,0.0,0.0,93,0.00,CLR,SCT,0.00,WeatherDisplay:10.37,2013-01-20 22:05:00,
2013-01-20 22:10:00,30.9,29.1,29.28,East,90,0.0,0.0,93,0.00,CLR,SCT,0.00,WeatherDisplay:10.37,2013-01-20 22:10:00,
2013-01-20 22:20:00,30.9,29.1,29.28,East,90,0.0,0.0,93,0.00,CLR,SCT,0.00,WeatherDisplay:10.37,2013-01-20 22:20:00,
2013-01-20 22:30:00,30.8,29.0,29.28,East,90,0.0,0.0,93,0.00,CLR,SCT,0.00,WeatherDisplay:10.37,2013-01-20 22:30:00,
2013-01-20 22:40:00,30.7,29.0,29.28,East,90,0.0,0.0,93,0.00,CLR,SCT,0.00,WeatherDisplay:10.37,2013-01-20 22:40:00,
2013-01-20 22:45:00,30.7,29.0,29.28,East,90,0.0,0.0,93,0.00,CLR,SCT,0.00,WeatherDisplay:10.37,2013-01-20 22:45:00,
2013-01-20 22:50:00,30.7,29.0,29.27,East,90,0.0,0.0,93,0.00,CLR,SCT,0.00,WeatherDisplay:10.37,2013-01-20 22:50:00,
2013-01-20 23:00:00,30.7,29.0,29.28,East,90,0.0,0.0,93,0.00,CLR,SCT,0.00,WeatherDisplay:10.37,2013-01-20 23:00:00,
2013-01-20 23:10:00,30.7,29.0,29.27,East,90,0.0,0.0,93,0.00,CLR,SCT,0.00,WeatherDisplay:10.37,2013-01-20 23:10:00,
2013-01-20 23:15:00,30.7,29.0,29.27,East,90,0.0,0.0,93,0.00,CLR,SCT,0.00,WeatherDisplay:10.37,2013-01-20 23:15:00,
2013-01-20 23:20:00,30.7,29.0,29.27,East,90,0.0,0.0,93,0.00,CLR,SCT,0.00,WeatherDisplay:10.37,2013-01-20 23:20:00,
2013-01-20 23:25:00,30.7,29.0,29.27,East,90,0.0,0.0,93,0.00,CLR,SCT,0.00,WeatherDisplay:10.37,2013-01-20 23:25:00,
2013-01-20 23:30:00,30.7,29.0,29.27,East,90,0.0,0.0,93,0.00,CLR,SCT,0.00,WeatherDisplay:10.37,2013-01-20 23:30:00,
2013-01-20 23:40:00,30.7,28.9,29.27,East,90,0.0,0.0,93,0.00,CLR,SCT,0.00,WeatherDisplay:10.37,2013-01-20 23:40:00,
2013-01-20 23:45:00,30.7,29.0,29.27,East,90,0.0,0.0,93,0.00,CLR,SCT,0.00,WeatherDisplay:10.37,2013-01-20 23:45:00,
2013-01-20 23:50:00,30.7,29.0,29.27,East,90,0.0,0.0,93,0.00,CLR,SCT,0.00,WeatherDisplay:10.37,2013-01-20 23:50:00,